Time;durP1;ratioP1;P1;durP2;ratioP2;P2;SDS_P1;SDS_P2;PMS_P1;PMS_P2;Temp;Humidity;BMP_temperature;BMP_pressure;BME280_temperature;BME280_humidity;BME280_pressure;Samples;Min_cycle;Max_cycle;Signal;HPM_P1;HPM_P2
2021/06/22 00:00:42;;;;;;;2.20;1.67;;;;;;;21.73;98.66;96737.22;5054366;28;20231;-69
2021/06/22 00:03:09;;;;;;;1.50;1.40;;;;;;;22.15;98.81;96801.06;5056710;28;20704;-66
2021/06/22 00:05:36;;;;;;;1.47;1.30;;;;;;;21.66;98.67;96707.28;5047048;28;20311;-72
2021/06/22 00:08:02;;;;;;;2.20;1.50;;;;;;;22.36;98.72;96831.22;5051484;28;20658;-65
2021/06/22 00:10:29;;;;;;;1.43;1.20;;;;;;;22.37;98.79;96838.03;5043567;28;20638;-68
2021/06/22 00:12:56;;;;;;;1.53;1.43;;;;;;;22.31;98.95;96828.59;5035005;28;20247;-68
2021/06/22 00:15:24;;;;;;;1.67;1.40;;;;;;;22.36;98.95;96847.44;5040753;28;20202;-68
2021/06/22 00:17:52;;;;;;;1.47;1.37;;;;;;;22.26;98.83;96821.69;5050083;28;20232;-68
2021/06/22 00:20:19;;;;;;;1.50;1.40;;;;;;;21.84;98.86;96754.50;5039419;28;20204;-71
2021/06/22 00:22:46;;;;;;;1.50;1.40;;;;;;;22.03;98.83;96782.06;5018001;28;20633;-69
2021/06/22 00:25:14;;;;;;;2.47;1.20;;;;;;;22.19;98.90;96820.72;5014812;28;20290;-68
2021/06/22 00:27:40;;;;;;;1.50;1.40;;;;;;;21.82;98.70;96758.72;5031288;28;20639;-68
2021/06/22 00:30:08;;;;;;;1.40;1.30;;;;;;;22.21;98.83;96820.75;5039440;28;20204;-72
2021/06/22 00:32:34;;;;;;;1.80;1.53;;;;;;;21.64;98.82;96725.97;5045525;28;20200;-70
2021/06/22 00:35:01;;;;;;;1.77;1.60;;;;;;;22.11;98.97;96852.16;5038635;28;20678;-71
2021/06/22 00:37:28;;;;;;;1.40;1.20;;;;;;;22.20;98.74;96849.75;5029660;28;20242;-72
2021/06/22 00:39:55;;;;;;;2.27;1.40;;;;;;;20.77;98.67;96610.31;5046999;28;20790;-70
2021/06/22 00:42:21;;;;;;;1.47;1.37;;;;;;;22.25;99.09;96866.88;5037183;28;20288;-68
2021/06/22 00:44:50;;;;;;;2.40;1.40;;;;;;;21.60;98.74;96763.44;5049068;28;20247;-71
2021/06/22 00:47:17;;;;;;;1.30;1.10;;;;;;;22.06;98.71;96834.16;5023726;28;20283;-68
2021/06/22 00:49:43;;;;;;;1.37;1.27;;;;;;;21.72;98.60;96780.69;5040514;28;20303;-65
2021/06/22 00:52:10;;;;;;;1.83;1.50;;;;;;;22.13;98.55;96859.00;5032571;28;20287;-68
2021/06/22 00:54:37;;;;;;;1.57;1.47;;;;;;;22.31;98.78;96892.59;5029165;28;20236;-69
2021/06/22 00:57:07;;;;;;;1.70;1.30;;;;;;;22.35;98.71;96898.63;5045621;28;20201;-68
2021/06/22 00:59:34;;;;;;;2.87;1.50;;;;;;;21.56;98.69;96781.25;5047587;28;20289;-70
2021/06/22 01:02:05;;;;;;;1.40;1.30;;;;;;;22.07;98.63;96858.03;5037407;28;20298;-68
2021/06/22 01:04:32;;;;;;;1.30;1.20;;;;;;;22.34;99.07;96912.25;5032836;28;20208;-71
2021/06/22 01:06:59;;;;;;;1.43;1.20;;;;;;;21.50;98.93;96786.25;5049089;28;20267;-69
2021/06/22 01:09:26;;;;;;;1.80;1.47;;;;;;;22.24;99.10;96901.00;5039112;28;20668;-73
2021/06/22 01:11:53;;;;;;;1.30;1.20;;;;;;;22.17;98.96;96888.94;5036378;28;20654;-68
2021/06/22 01:14:20;;;;;;;2.00;1.60;;;;;;;22.32;99.14;96921.63;5019291;28;20334;-73
2021/06/22 01:16:46;;;;;;;1.30;1.20;;;;;;;21.53;98.95;96791.44;5043249;28;20293;-71
2021/06/22 01:19:14;;;;;;;1.63;1.53;;;;;;;22.33;99.20;96939.56;5035904;28;20315;-68
2021/06/22 01:21:40;;;;;;;2.13;1.30;;;;;;;22.12;99.14;96917.84;5039175;28;20535;-69
2021/06/22 01:24:09;;;;;;;1.30;1.20;;;;;;;21.65;99.04;96846.19;5047783;28;20231;-68
2021/06/22 01:26:37;;;;;;;1.30;1.20;;;;;;;22.26;99.26;96942.00;5021643;28;20223;-67
2021/06/22 01:29:04;;;;;;;1.20;1.10;;;;;;;22.13;99.12;96919.56;5044027;28;20620;-69
2021/06/22 01:31:31;;;;;;;1.37;1.27;;;;;;;19.37;99.28;96466.41;5063778;28;20227;-69
2021/06/22 01:33:57;;;;;;;1.30;1.20;;;;;;;22.03;99.12;96910.88;5055998;28;20204;-70
2021/06/22 01:36:26;;;;;;;1.30;1.20;;;;;;;22.14;99.08;96928.97;5042736;28;20235;-68
2021/06/22 01:38:53;;;;;;;1.20;1.10;;;;;;;22.06;99.42;96905.81;5050876;28;20660;-69
2021/06/22 01:41:19;;;;;;;1.77;1.30;;;;;;;22.33;98.97;96954.03;5044026;28;20327;-70
2021/06/22 01:43:46;;;;;;;1.27;1.20;;;;;;;21.19;98.98;96759.28;5044222;28;20300;-69
2021/06/22 01:46:12;;;;;;;1.30;1.20;;;;;;;22.05;99.15;96910.91;5039051;28;20255;-69
2021/06/22 01:48:39;;;;;;;1.50;1.40;;;;;;;22.34;99.00;96954.06;5017889;28;20231;-72
2021/06/22 01:51:06;;;;;;;1.10;1.00;;;;;;;22.33;98.52;96964.28;5035821;28;20660;-69
2021/06/22 01:53:32;;;;;;;1.20;1.20;;;;;;;22.34;98.74;96969.44;5054749;28;20295;-68
2021/06/22 01:55:59;;;;;;;2.30;1.67;;;;;;;21.97;98.77;96909.91;5040535;28;20228;-67
2021/06/22 01:58:30;;;;;;;1.40;1.30;;;;;;;22.33;98.79;96977.09;5036696;28;20235;-67
2021/06/22 02:00:58;;;;;;;1.53;1.30;;;;;;;21.39;99.21;96818.44;5035610;28;20973;-68
2021/06/22 02:03:26;;;;;;;1.23;1.13;;;;;;;22.15;99.01;96935.81;5038795;28;20208;-66
2021/06/22 02:05:52;;;;;;;1.30;1.20;;;;;;;21.73;98.95;96865.94;5023112;28;20224;-68
2021/06/22 02:08:19;;;;;;;1.27;1.17;;;;;;;22.30;99.13;96966.78;5020499;28;20682;-68
2021/06/22 02:10:46;;;;;;;1.40;1.30;;;;;;;22.22;99.13;96946.19;5060731;28;20291;-71
2021/06/22 02:13:13;;;;;;;1.33;1.23;;;;;;;22.01;99.13;96917.66;5002967;28;20312;-66
2021/06/22 02:15:40;;;;;;;1.33;1.13;;;;;;;22.30;99.32;96966.78;5038611;28;20339;-74
2021/06/22 02:18:07;;;;;;;1.27;1.17;;;;;;;21.51;99.35;96834.00;5053832;28;20719;-70
2021/06/22 02:20:35;;;;;;;1.47;1.37;;;;;;;22.30;99.27;96960.00;5034044;28;20240;-67
2021/06/22 02:23:01;;;;;;;1.10;1.00;;;;;;;22.30;99.34;96960.00;5040480;28;20292;-68
2021/06/22 02:25:28;;;;;;;1.30;1.20;;;;;;;21.67;99.25;96853.88;5066052;28;20243;-68
2021/06/22 02:28:16;;;;;;;1.30;1.20;;;;;;;20.47;98.90;96647.19;5032663;28;20224;-67
2021/06/22 02:30:43;;;;;;;1.40;1.20;;;;;;;22.29;99.20;96960.81;5024364;28;20588;-71
2021/06/22 02:33:10;;;;;;;1.10;1.10;;;;;;;22.31;99.56;96968.50;5014418;28;20205;-73
2021/06/22 02:35:37;;;;;;;0.93;0.93;;;;;;;22.30;99.22;96970.22;5053952;28;20628;-66
2021/06/22 02:38:03;;;;;;;1.30;1.20;;;;;;;22.22;99.46;96953.88;5057111;28;20308;-70
2021/06/22 02:40:30;;;;;;;1.30;1.20;;;;;;;21.56;99.22;96845.19;5034556;28;20236;-67
2021/06/22 02:42:57;;;;;;;1.10;1.03;;;;;;;22.13;99.12;96933.22;5029548;28;20239;-66
2021/06/22 02:45:23;;;;;;;1.40;1.30;;;;;;;22.28;99.47;96966.75;5060710;28;20362;-73
2021/06/22 02:47:51;;;;;;;1.40;1.20;;;;;;;21.46;99.15;96820.25;5024071;28;20235;-67
2021/06/22 02:50:18;;;;;;;1.30;1.20;;;;;;;21.66;99.10;96868.38;5029654;28;20200;-67
2021/06/22 02:52:45;;;;;;;1.10;1.00;;;;;;;20.47;98.89;96683.78;5030969;28;20642;-70
2021/06/22 02:55:20;;;;;;;1.43;1.13;;;;;;;21.32;99.08;96804.66;5051455;28;20232;-68
2021/06/22 02:57:52;;;;;;;1.30;1.20;;;;;;;22.30;99.09;96970.22;5020750;28;20705;-68
2021/06/22 03:00:21;;;;;;;1.40;1.30;;;;;;;22.30;99.20;96972.78;5023221;28;20254;-66
2021/06/22 03:02:49;;;;;;;1.27;1.17;;;;;;;22.15;99.07;96944.38;5061776;28;20684;-73
2021/06/22 03:05:17;;;;;;;1.30;1.20;;;;;;;22.29;99.27;96965.09;5017091;28;20211;-68
2021/06/22 03:07:44;;;;;;;1.30;1.20;;;;;;;22.29;99.02;96971.03;5063568;28;20230;-69
2021/06/22 03:10:11;;;;;;;0.90;0.90;;;;;;;21.78;99.24;96887.34;5046699;28;20361;-69
2021/06/22 03:12:38;;;;;;;1.20;1.10;;;;;;;21.67;99.08;96877.78;5041568;28;20250;-69
2021/06/22 03:15:09;;;;;;;1.30;1.20;;;;;;;20.51;99.40;96682.13;5054285;28;20200;-68
2021/06/22 03:17:36;;;;;;;1.33;1.10;;;;;;;21.88;99.49;96923.41;5064993;28;20283;-69
2021/06/22 03:20:07;;;;;;;1.53;1.43;;;;;;;21.59;100.00;96875.91;5009307;28;20203;-65
2021/06/22 03:22:34;;;;;;;1.57;1.43;;;;;;;22.14;100.00;96987.84;5030976;28;20299;-68
2021/06/22 03:25:00;;;;;;;6.67;1.57;;;;;;;21.77;100.00;96901.88;5038029;28;20259;-68
2021/06/22 03:27:27;;;;;;;2.07;1.63;;;;;;;21.75;100.00;96933.34;5010987;28;20230;-68
2021/06/22 03:29:53;;;;;;;3.87;2.10;;;;;;;21.75;100.00;96893.28;5045665;28;20258;-68
2021/06/22 03:32:20;;;;;;;3.30;2.37;;;;;;;22.10;100.00;96961.31;5049658;28;20236;-69
2021/06/22 03:34:47;;;;;;;7.47;2.13;;;;;;;22.10;100.00;96966.44;5043292;28;20211;-66
2021/06/22 03:37:13;;;;;;;4.03;2.00;;;;;;;21.47;100.00;96850.97;5054108;28;20291;-68
2021/06/22 03:39:40;;;;;;;6.23;2.37;;;;;;;21.69;100.00;96886.34;5040973;28;20760;-70
2021/06/22 03:42:07;;;;;;;6.53;2.40;;;;;;;22.02;100.00;96939.84;5038012;28;20290;-68
2021/06/22 03:44:34;;;;;;;3.63;2.40;;;;;;;22.26;100.00;96975.25;5051155;28;20284;-68
2021/06/22 03:47:01;;;;;;;6.87;2.73;;;;;;;22.09;100.00;96944.25;5034349;28;20262;-68
2021/06/22 03:49:28;;;;;;;5.23;2.73;;;;;;;21.87;100.00;96908.88;5025896;28;20306;-68
2021/06/22 03:51:54;;;;;;;3.37;2.63;;;;;;;21.44;100.00;96839.84;5068538;28;20255;-68
2021/06/22 03:54:23;;;;;;;2.87;2.53;;;;;;;21.96;100.00;96920.97;5031040;28;20574;-68
2021/06/22 03:56:50;;;;;;;6.07;2.80;;;;;;;22.28;100.00;96971.00;5042894;28;20323;-69
2021/06/22 03:59:16;;;;;;;3.23;2.30;;;;;;;21.74;100.00;96878.78;5044413;28;20256;-66
2021/06/22 04:01:43;;;;;;;2.97;2.60;;;;;;;22.26;100.00;96970.16;5042853;28;20255;-69
2021/06/22 04:04:10;;;;;;;2.53;2.33;;;;;;;22.25;100.00;96974.41;5063672;28;20208;-68
2021/06/22 04:06:36;;;;;;;2.40;2.20;;;;;;;22.26;100.00;96972.72;5024484;28;20307;-70
2021/06/22 04:09:03;;;;;;;2.57;2.37;;;;;;;22.25;100.00;96978.63;5051031;28;20247;-68
2021/06/22 04:11:30;;;;;;;3.27;2.20;;;;;;;22.26;100.00;96977.81;5048367;28;20245;-68
2021/06/22 04:13:56;;;;;;;3.13;2.33;;;;;;;21.55;100.00;96862.19;5042967;28;20231;-68
2021/06/22 04:16:23;;;;;;;6.17;2.50;;;;;;;22.14;100.00;96959.69;5030113;28;20793;-68
2021/06/22 04:18:49;;;;;;;3.43;2.37;;;;;;;21.65;100.00;96873.47;5040572;28;20225;-68
2021/06/22 04:21:16;;;;;;;2.90;2.30;;;;;;;22.17;100.00;96973.38;5036591;28;20287;-68
2021/06/22 04:23:43;;;;;;;4.63;2.23;;;;;;;22.00;100.00;96938.97;5016373;28;20324;-68
2021/06/22 04:26:09;;;;;;;2.83;2.10;;;;;;;22.07;100.00;96950.16;5015018;28;20237;-68
2021/06/22 04:28:36;;;;;;;2.90;2.30;;;;;;;20.40;100.00;96681.91;5046797;28;20611;-68
2021/06/22 04:31:02;;;;;;;2.20;2.00;;;;;;;22.09;100.00;96957.06;5038343;28;20234;-68
2021/06/22 04:33:29;;;;;;;4.00;2.37;;;;;;;21.74;100.00;96889.03;5030139;28;20812;-66
2021/06/22 04:35:57;;;;;;;5.97;2.57;;;;;;;21.19;100.00;96805.28;5038814;28;20299;-69
2021/06/22 04:38:23;;;;;;;4.70;2.03;;;;;;;21.70;100.00;96880.38;5025198;28;20251;-68
2021/06/22 04:40:50;;;;;;;2.90;2.37;;;;;;;21.55;100.00;96853.66;5056487;28;20274;-67
2021/06/22 04:43:16;;;;;;;3.63;2.10;;;;;;;21.36;100.00;96819.25;5042787;28;20291;-69
2021/06/22 04:45:43;;;;;;;3.17;2.53;;;;;;;21.93;100.00;96914.09;5066605;28;20251;-69
2021/06/22 04:48:09;;;;;;;2.37;2.17;;;;;;;22.27;100.00;96972.72;5039754;28;20263;-69
2021/06/22 04:50:36;;;;;;;2.30;2.07;;;;;;;21.48;100.00;96839.94;5033768;28;20201;-68
2021/06/22 04:53:03;;;;;;;2.80;2.10;;;;;;;22.28;100.00;96978.69;5061663;28;20288;-70
2021/06/22 04:55:29;;;;;;;2.97;2.20;;;;;;;21.40;100.00;96838.03;5042534;28;20236;-68
2021/06/22 04:57:57;;;;;;;2.77;2.00;;;;;;;22.16;100.00;96964.00;5030825;28;20252;-68
2021/06/22 05:00:24;;;;;;;2.80;2.13;;;;;;;22.24;100.00;96966.69;5029702;28;20654;-69
2021/06/22 05:02:51;;;;;;;2.90;1.90;;;;;;;20.33;100.00;96625.63;5035392;28;20232;-68
2021/06/22 05:05:17;;;;;;;2.30;2.10;;;;;;;21.56;100.00;96840.91;5037576;28;20292;-69
2021/06/22 05:07:44;;;;;;;3.60;2.23;;;;;;;21.96;100.00;96903.06;5027424;28;20216;-69
2021/06/22 05:10:11;;;;;;;4.20;2.23;;;;;;;21.98;100.00;96906.50;5022273;28;20288;-68
2021/06/22 05:12:42;;;;;;;2.90;1.80;;;;;;;21.93;100.00;96897.91;5016216;28;20224;-70
2021/06/22 05:15:09;;;;;;;3.43;2.33;;;;;;;21.67;100.00;96862.44;5031803;28;20896;-69
2021/06/22 05:17:36;;;;;;;2.70;2.13;;;;;;;22.30;100.00;96966.78;5039968;28;20200;-69
2021/06/22 05:20:04;;;;;;;2.83;2.00;;;;;;;22.05;100.00;96924.53;5046756;28;20706;-70
2021/06/22 05:22:31;;;;;;;2.83;1.80;;;;;;;22.34;100.00;96978.81;5015831;28;20620;-74
2021/06/22 05:24:58;;;;;;;4.03;1.90;;;;;;;22.09;100.00;96941.69;5052511;28;20291;-69
2021/06/22 05:27:25;;;;;;;2.70;1.90;;;;;;;21.97;100.00;96927.81;5028462;28;20255;-68
2021/06/22 05:29:51;;;;;;;2.53;2.20;;;;;;;22.36;100.00;96995.94;5064271;28;20273;-70
2021/06/22 05:32:18;;;;;;;2.30;2.10;;;;;;;22.37;100.00;96995.09;5063238;28;20201;-72
2021/06/22 05:34:44;;;;;;;2.10;1.90;;;;;;;21.73;100.00;96884.69;5047073;28;20210;-70
2021/06/22 05:37:11;;;;;;;2.20;2.00;;;;;;;22.38;100.00;96990.84;5042511;28;20255;-69
2021/06/22 05:39:37;;;;;;;1.90;1.80;;;;;;;22.20;100.00;96952.97;5053112;28;20655;-71
2021/06/22 05:42:04;;;;;;;2.90;2.00;;;;;;;22.38;100.00;96991.69;5008339;28;20752;-70
2021/06/22 05:44:31;;;;;;;2.00;1.80;;;;;;;22.39;100.00;96987.44;5049927;28;20235;-69
2021/06/22 05:46:57;;;;;;;2.17;1.80;;;;;;;22.19;100.00;96984.53;5051041;28;20945;-69
2021/06/22 05:49:24;;;;;;;2.10;1.70;;;;;;;22.17;100.00;96949.50;5022946;28;20729;-68
2021/06/22 05:51:52;;;;;;;1.93;1.60;;;;;;;20.63;100.00;96711.31;5039720;28;20652;-70
2021/06/22 05:54:19;;;;;;;1.83;1.60;;;;;;;22.40;100.00;96991.72;5049585;28;20239;-69
2021/06/22 05:56:46;;;;;;;2.10;1.90;;;;;;;22.37;100.00;96994.22;5057712;28;20254;-70
2021/06/22 06:01:41;;;;;;;3.20;1.90;;;;;;;22.40;100.00;96991.72;5006231;28;20318;-69
2021/06/22 06:04:08;;;;;;;2.73;1.90;;;;;;;22.39;100.00;96978.06;4987986;28;20199;-72
2021/06/22 06:06:34;;;;;;;2.10;1.90;;;;;;;22.23;100.00;96962.41;4999428;28;20237;-69
2021/06/22 06:09:01;;;;;;;2.23;1.83;;;;;;;22.36;100.00;96978.00;5001275;28;20776;-73
2021/06/22 06:11:27;;;;;;;2.80;1.80;;;;;;;22.41;100.00;96989.19;4966384;28;20291;-71
2021/06/22 06:13:54;;;;;;;1.70;1.60;;;;;;;22.41;100.00;96983.22;4985825;28;20298;-69
2021/06/22 06:16:21;;;;;;;2.03;1.70;;;;;;;22.42;100.00;96990.06;4979067;28;20636;-73
2021/06/22 06:18:48;;;;;;;1.87;1.73;;;;;;;22.42;100.00;96990.91;4968366;28;20647;-72
2021/06/22 06:21:14;;;;;;;1.60;1.50;;;;;;;22.41;100.00;96978.94;4987975;28;20286;-76
2021/06/22 06:23:43;;;;;;;1.63;1.53;;;;;;;22.43;100.00;96986.66;4967761;28;20251;-72
2021/06/22 06:26:13;;;;;;;1.60;1.50;;;;;;;22.43;100.00;96990.06;4985951;28;20226;-73
2021/06/22 06:29:06;;;;;;;4.27;2.00;;;;;;;22.43;100.00;96984.94;4985656;28;20226;-69
2021/06/22 06:31:29;;;;;;;2.53;1.67;;;;;;;22.43;100.00;96989.19;4986858;28;20241;-69
2021/06/22 06:33:55;;;;;;;1.50;1.40;;;;;;;22.44;100.00;96991.78;4986215;28;20285;-71
2021/06/22 06:36:22;;;;;;;1.80;1.70;;;;;;;22.44;100.00;96998.63;4970433;28;20237;-69
2021/06/22 06:38:50;;;;;;;1.67;1.57;;;;;;;22.22;100.00;96953.88;4986497;28;20251;-73
2021/06/22 06:41:16;;;;;;;2.07;1.87;;;;;;;22.44;100.00;96996.91;4969013;28;20235;-73
2021/06/22 06:43:43;;;;;;;2.40;1.27;;;;;;;22.28;100.00;96964.22;4986378;28;20711;-73
2021/06/22 06:46:09;;;;;;;1.70;1.60;;;;;;;21.51;100.00;96834.88;4985343;28;20202;-69
2021/06/22 06:48:38;;;;;;;1.83;1.60;;;;;;;22.44;100.00;96996.91;4968323;28;20234;-70
2021/06/22 06:51:05;;;;;;;1.70;1.60;;;;;;;22.42;100.00;96992.59;4965591;28;20281;-70
2021/06/22 06:53:32;;;;;;;1.40;1.30;;;;;;;22.43;100.00;96991.75;4969260;28;20289;-72
2021/06/22 06:55:58;;;;;;;1.63;1.53;;;;;;;22.38;100.00;96986.56;4965525;28;20245;-68
2021/06/22 06:58:25;;;;;;;1.80;1.70;;;;;;;22.12;100.00;96938.31;4969593;28;20298;-68
2021/06/22 07:00:51;;;;;;;2.40;1.57;;;;;;;22.39;100.00;96984.88;4985762;28;20248;-69
2021/06/22 07:03:18;;;;;;;1.53;1.40;;;;;;;22.32;100.00;96976.22;4987228;28;20210;-68
2021/06/22 07:05:45;;;;;;;1.90;1.57;;;;;;;22.43;100.00;96994.31;4965770;28;20235;-69
2021/06/22 07:08:11;;;;;;;3.03;1.43;;;;;;;22.43;100.00;96991.75;4986409;28;20791;-68
2021/06/22 07:10:38;;;;;;;1.60;1.50;;;;;;;22.04;100.00;96925.38;4968778;28;20297;-70
2021/06/22 07:13:12;;;;;;;2.30;1.57;;;;;;;22.07;100.00;96932.25;4980452;28;20311;-69
2021/06/22 07:15:39;;;;;;;1.83;1.73;;;;;;;22.30;100.00;96972.78;4982602;28;20234;-73
2021/06/22 07:18:06;;;;;;;1.57;1.47;;;;;;;22.40;100.00;96991.72;4966606;28;20479;-68
2021/06/22 07:20:32;;;;;;;1.80;1.57;;;;;;;22.44;100.00;96990.94;4981231;28;20258;-68
2021/06/22 07:22:59;;;;;;;2.20;1.60;;;;;;;22.32;100.00;96976.22;4983019;28;20293;-72
2021/06/22 07:25:26;;;;;;;3.87;1.53;;;;;;;22.17;100.00;96944.38;4965722;28;20240;-71
2021/06/22 07:27:54;;;;;;;1.87;1.60;;;;;;;22.32;100.00;96965.13;4985871;28;20329;-70
2021/06/22 07:30:23;;;;;;;1.53;1.43;;;;;;;22.45;100.00;96996.09;4984419;28;20261;-68
2021/06/22 07:32:50;;;;;;;1.90;1.57;;;;;;;22.46;100.00;96999.50;4952044;28;20357;-72
2021/06/22 07:35:17;;;;;;;2.93;1.63;;;;;;;21.93;100.00;96914.09;4984405;28;20688;-71
2021/06/22 07:37:44;;;;;;;1.60;1.50;;;;;;;22.17;100.00;96947.78;4952808;28;20203;-70
2021/06/22 07:40:12;;;;;;;1.60;1.50;;;;;;;22.47;100.00;97003.81;4981716;28;20246;-68
2021/06/22 07:42:38;;;;;;;1.50;1.40;;;;;;;22.21;100.00;96957.28;4968316;28;20317;-74
2021/06/22 07:45:08;;;;;;;1.60;1.50;;;;;;;22.33;100.00;96977.97;4969464;28;20229;-69
2021/06/22 07:47:35;;;;;;;3.00;1.70;;;;;;;21.80;100.00;96881.47;4984538;28;20317;-72
2021/06/22 07:50:03;;;;;;;1.60;1.50;;;;;;;22.10;100.00;96953.66;4960798;28;20996;-68
2021/06/22 07:52:30;;;;;;;1.50;1.40;;;;;;;22.08;100.00;96932.28;4985265;28;20227;-70
2021/06/22 07:54:56;;;;;;;1.63;1.37;;;;;;;22.44;100.00;96985.81;4987840;28;20698;-68
2021/06/22 07:57:23;;;;;;;2.77;1.50;;;;;;;22.08;100.00;96914.34;4967554;28;20904;-70
2021/06/22 07:59:49;;;;;;;1.60;1.50;;;;;;;22.42;100.00;96978.13;4986952;28;20744;-70
2021/06/22 08:02:16;;;;;;;1.60;1.50;;;;;;;22.20;100.00;96937.59;4983657;28;20230;-69
2021/06/22 08:04:43;;;;;;;2.30;1.60;;;;;;;21.63;100.00;96841.88;4967895;28;20274;-68
2021/06/22 08:07:09;;;;;;;2.57;1.37;;;;;;;22.21;100.00;96947.03;4987137;28;20962;-70
2021/06/22 08:09:36;;;;;;;1.43;1.33;;;;;;;22.24;100.00;96936.84;4986156;28;20254;-72
2021/06/22 08:12:03;;;;;;;2.03;1.73;;;;;;;22.42;100.00;96967.88;4967937;28;20199;-70
2021/06/22 08:14:30;;;;;;;1.53;1.43;;;;;;;21.97;100.00;96876.63;4986484;28;20297;-71
2021/06/22 08:16:56;;;;;;;2.70;1.50;;;;;;;22.43;100.00;96963.59;4988920;28;20235;-72
2021/06/22 08:19:23;;;;;;;1.47;1.37;;;;;;;22.44;100.00;96965.34;4955253;28;20250;-70
2021/06/22 08:21:49;;;;;;;1.57;1.40;;;;;;;22.11;100.00;96908.44;4954474;28;20238;-69
2021/06/22 08:24:16;;;;;;;1.57;1.37;;;;;;;22.08;100.00;96906.69;4986376;28;20226;-68
2021/06/22 08:26:43;;;;;;;1.40;1.23;;;;;;;22.06;100.00;96894.72;4970535;28;20199;-70
2021/06/22 08:29:10;;;;;;;1.20;1.20;;;;;;;22.46;100.00;96955.97;4985476;28;20741;-70
2021/06/22 08:31:36;;;;;;;1.50;1.40;;;;;;;21.88;100.00;96858.56;4974858;28;20210;-69
2021/06/22 08:34:09;;;;;;;1.50;1.40;;;;;;;22.45;100.00;96955.13;4985612;28;20252;-70
2021/06/22 08:36:36;;;;;;;1.93;1.50;;;;;;;22.24;100.00;96924.03;4988019;28;20294;-69
2021/06/22 08:39:02;;;;;;;2.53;1.50;;;;;;;22.47;100.00;96962.84;4967789;28;20254;-69
2021/06/22 08:41:29;;;;;;;1.40;1.30;;;;;;;22.17;100.00;96918.81;4984338;28;20649;-71
2021/06/22 08:43:57;;;;;;;1.57;1.40;;;;;;;22.12;100.00;96905.91;5002003;28;20294;-72
2021/06/22 08:46:23;;;;;;;1.60;1.50;;;;;;;22.29;100.00;96942.88;4954402;28;20289;-68
2021/06/22 08:48:50;;;;;;;1.63;1.40;;;;;;;22.48;100.00;96972.22;4951213;28;20274;-71
2021/06/22 08:51:36;;;;;;;1.60;1.50;;;;;;;21.60;100.00;96827.38;4956000;28;20214;-70
2021/06/22 08:54:04;;;;;;;1.40;1.30;;;;;;;22.06;100.00;96898.13;4959492;28;20305;-71
2021/06/22 08:56:30;;;;;;;1.50;1.40;;;;;;;21.63;100.00;96822.31;4980244;28;20224;-68
2021/06/22 08:58:57;;;;;;;1.37;1.27;;;;;;;22.48;100.00;96973.09;4984390;28;20281;-69
2021/06/22 09:01:24;;;;;;;1.50;1.40;;;;;;;22.16;100.00;96915.38;4968537;28;20345;-68
2021/06/22 09:03:50;;;;;;;1.50;1.40;;;;;;;22.48;100.00;96964.53;4971815;28;20206;-69
2021/06/22 09:06:17;;;;;;;3.40;1.57;;;;;;;22.36;100.00;96946.41;4967192;28;20854;-68
2021/06/22 09:08:51;;;;;;;1.53;1.43;;;;;;;22.17;100.00;96913.69;4983225;28;20258;-71
2021/06/22 09:11:18;;;;;;;1.40;1.20;;;;;;;22.34;100.00;96946.41;4967440;28;20199;-71
2021/06/22 09:14:01;;;;;;;1.40;1.30;;;;;;;22.13;100.00;96915.31;4969386;28;20293;-69
2021/06/22 09:16:28;;;;;;;1.40;1.30;;;;;;;22.47;100.00;96973.91;4989451;28;20249;-72
2021/06/22 09:19:06;;;;;;;1.93;1.40;;;;;;;21.75;100.00;96846.38;4961795;28;20235;-67
2021/06/22 09:21:43;;;;;;;1.50;1.40;;;;;;;22.29;100.00;96959.97;4968308;28;20648;-68
2021/06/22 09:24:21;;;;;;;1.40;1.30;;;;;;;22.27;100.00;96936.03;4978445;28;20648;-68
2021/06/22 09:26:50;;;;;;;1.37;1.27;;;;;;;22.46;100.00;96961.97;4985743;28;20746;-69
2021/06/22 09:29:20;;;;;;;1.40;1.30;;;;;;;22.15;100.00;96916.22;4982160;28;20230;-69
2021/06/22 09:31:56;;;;;;;1.87;1.40;;;;;;;22.17;100.00;96924.75;4983463;28;20322;-69
2021/06/22 09:34:25;;;;;;;1.40;1.20;;;;;;;22.50;100.00;96978.25;4982855;28;20231;-71
2021/06/22 09:36:53;;;;;;;1.80;1.57;;;;;;;22.35;100.00;96954.94;4998506;28;21053;-69
2021/06/22 09:39:21;;;;;;;1.40;1.30;;;;;;;22.02;100.00;96891.22;4967299;28;20251;-70
2021/06/22 09:41:48;;;;;;;1.20;1.20;;;;;;;22.32;100.00;96947.22;4969155;28;20207;-71
2021/06/22 09:44:16;;;;;;;1.47;1.37;;;;;;;22.51;100.00;96972.31;4966665;28;20302;-69
2021/06/22 09:47:11;;;;;;;1.40;1.30;;;;;;;22.51;100.00;96972.31;4986423;28;20293;-69
2021/06/22 09:49:38;;;;;;;1.40;1.30;;;;;;;22.23;100.00;96926.59;4968157;28;20341;-65
2021/06/22 09:52:16;;;;;;;1.60;1.50;;;;;;;21.50;100.00;96799.88;4992520;28;20646;-68
2021/06/22 09:54:47;;;;;;;1.60;1.50;;;;;;;22.32;100.00;96939.53;4986807;28;20217;-68
2021/06/22 09:57:18;;;;;;;3.27;1.60;;;;;;;21.72;100.00;96834.38;4985124;28;20308;-69
2021/06/22 10:00:18;;;;;;;1.43;1.33;;;;;;;22.32;100.00;96939.53;4983696;28;20258;-67
2021/06/22 10:03:00;;;;;;;1.53;1.40;;;;;;;22.34;100.00;96940.41;4972365;28;20269;-71
2021/06/22 10:05:26;;;;;;;1.53;1.43;;;;;;;21.81;99.65;96851.59;4970715;28;20214;-69
2021/06/22 10:08:01;;;;;;;1.40;1.30;;;;;;;22.47;100.00;96966.22;4997991;28;20264;-69
2021/06/22 10:10:37;;;;;;;1.30;1.30;;;;;;;21.91;99.90;96868.84;4970011;28;20222;-69
2021/06/22 10:13:04;;;;;;;1.73;1.20;;;;;;;21.60;99.92;96821.38;5001673;28;20245;-69
2021/06/22 10:15:31;;;;;;;1.93;1.40;;;;;;;22.21;100.00;96923.13;4980434;28;20214;-73
2021/06/22 10:17:57;;;;;;;1.20;1.20;;;;;;;22.08;99.86;96896.44;4985295;28;20685;-74
2021/06/22 10:20:24;;;;;;;1.50;1.27;;;;;;;22.46;100.00;96963.66;4979861;28;20796;-69
2021/06/22 10:22:51;;;;;;;1.50;1.40;;;;;;;22.23;99.82;96934.25;4967788;28;20230;-68
2021/06/22 10:25:19;;;;;;;1.70;1.60;;;;;;;22.47;99.35;96962.84;4954740;28;20294;-69
2021/06/22 10:27:50;;;;;;;1.73;1.40;;;;;;;22.28;99.37;96935.19;4987738;28;20297;-69
2021/06/22 10:30:19;;;;;;;2.97;1.40;;;;;;;22.39;99.20;96957.59;4984745;28;20310;-73
2021/06/22 10:32:46;;;;;;;1.73;1.63;;;;;;;22.22;99.36;96925.72;4983113;28;20503;-69
2021/06/22 10:35:14;;;;;;;2.10;1.50;;;;;;;22.46;99.13;96969.63;4979277;28;20203;-71
2021/06/22 10:37:54;;;;;;;1.40;1.30;;;;;;;22.17;99.40;96917.06;4962335;28;20622;-73
2021/06/22 10:40:25;;;;;;;3.23;1.50;;;;;;;22.29;99.27;96942.88;4969169;28;20330;-69
2021/06/22 10:42:59;;;;;;;2.13;1.40;;;;;;;22.46;99.59;96961.97;4993969;28;20210;-69
2021/06/22 10:45:52;;;;;;;2.37;1.57;;;;;;;;;;4969224;28;20211;-71
2021/06/22 10:48:19;;;;;;;2.47;1.60;;;;;;;22.45;99.23;96962.81;4983536;28;20334;-75
2021/06/22 10:50:45;;;;;;;3.73;1.73;;;;;;;22.45;99.20;96967.06;4986639;28;20265;-71
2021/06/22 10:53:12;;;;;;;2.00;1.40;;;;;;;22.45;99.37;96973.06;4979688;28;20203;-70
2021/06/22 10:55:43;;;;;;;3.43;1.50;;;;;;;22.45;99.52;96970.50;4963944;28;20207;-67
2021/06/22 10:58:12;;;;;;;3.30;1.30;;;;;;;22.25;99.40;96936.00;4981613;28;20286;-71
2021/06/22 11:00:48;;;;;;;1.63;1.53;;;;;;;22.43;99.47;96969.59;4973410;28;20338;-75
2021/06/22 11:03:24;;;;;;;3.00;1.73;;;;;;;22.16;99.55;96915.38;4981970;28;20293;-72
2021/06/22 11:06:10;;;;;;;1.43;1.33;;;;;;;22.42;99.53;96972.13;4983354;28;20238;-71
2021/06/22 11:08:41;;;;;;;3.53;1.60;;;;;;;22.34;99.58;96963.44;4981817;28;20712;-67
2021/06/22 11:11:08;;;;;;;1.50;1.40;;;;;;;22.42;99.71;96974.69;4981925;28;20245;-71
2021/06/22 11:13:56;;;;;;;2.87;1.40;;;;;;;22.22;99.64;96935.94;4985709;28;20281;-71
2021/06/22 11:16:23;;;;;;;2.13;1.30;;;;;;;22.42;99.71;96969.56;4954283;28;20259;-68
2021/06/22 11:18:56;;;;;;;1.53;1.43;;;;;;;22.41;99.87;96978.09;4988898;28;20580;-69
2021/06/22 11:21:35;;;;;;;1.33;1.23;;;;;;;22.41;99.70;96955.88;4986645;28;20211;-68
2021/06/22 11:24:12;;;;;;;1.40;1.30;;;;;;;22.31;99.90;96951.47;4981184;28;20211;-73
2021/06/22 11:26:42;;;;;;;2.50;1.73;;;;;;;22.40;99.81;96964.41;5001142;28;20207;-70
2021/06/22 11:29:09;;;;;;;1.57;1.27;;;;;;;22.23;99.78;96941.94;4989757;28;20250;-71
2021/06/22 11:31:40;;;;;;;1.63;1.40;;;;;;;22.40;100.00;96964.41;4979869;28;20203;-72
2021/06/22 11:34:07;;;;;;;1.37;1.27;;;;;;;22.40;99.92;96960.97;4984958;28;20210;-69
2021/06/22 11:36:42;;;;;;;2.20;1.50;;;;;;;22.36;99.80;96956.66;4998413;28;20298;-71